createdAt,value
2018-05-25T00:02:00.390Z,20.40
2018-05-25T00:04:27.917Z,20.40
2018-05-25T00:06:55.441Z,20.30
2018-05-25T00:09:22.969Z,20.30
2018-05-25T00:11:50.489Z,20.30
2018-05-25T00:14:18.122Z,20.20
2018-05-25T00:16:45.682Z,20.20
2018-05-25T00:19:13.227Z,20.20
2018-05-25T00:21:41.504Z,20.20
2018-05-25T00:24:09.904Z,20.10
2018-05-25T00:26:37.418Z,20.10
2018-05-25T00:29:04.948Z,20.10
2018-05-25T00:31:32.476Z,19.90
2018-05-25T00:34:00.056Z,19.90
2018-05-25T00:36:27.591Z,20.00
2018-05-25T00:38:55.123Z,19.90
2018-05-25T00:41:23.404Z,19.80
2018-05-25T00:43:51.711Z,19.80
2018-05-25T00:46:19.345Z,19.80
2018-05-25T00:48:47.644Z,19.70
2018-05-25T00:51:15.142Z,19.60
2018-05-25T00:53:42.666Z,19.60
2018-05-25T00:56:10.384Z,19.60
2018-05-25T00:58:38.818Z,19.60
2018-05-25T01:01:06.373Z,19.60
2018-05-25T01:03:33.912Z,19.50
2018-05-25T01:06:01.448Z,19.50
2018-05-25T01:08:29.764Z,19.40
2018-05-25T01:10:57.298Z,19.40
2018-05-25T01:13:24.821Z,19.40
2018-05-25T01:15:52.349Z,19.30
2018-05-25T01:18:19.884Z,19.30
2018-05-25T01:20:47.439Z,19.10
2018-05-25T01:23:15.736Z,19.10
2018-05-25T01:25:43.256Z,19.10
2018-05-25T01:28:10.955Z,19.10
2018-05-25T01:30:38.603Z,19.00
2018-05-25T01:33:06.116Z,19.00
2018-05-25T01:35:33.635Z,18.90
2018-05-25T01:38:01.178Z,18.90
2018-05-25T01:40:28.708Z,18.80
2018-05-25T01:42:57.110Z,18.80
2018-05-25T01:45:24.640Z,18.80
2018-05-25T01:47:52.214Z,18.80
2018-05-25T01:50:19.737Z,18.70
2018-05-25T01:52:47.260Z,18.60
2018-05-25T01:55:14.821Z,18.50
2018-05-25T01:57:42.354Z,18.50
2018-05-25T02:00:10.635Z,18.50
2018-05-25T02:02:38.259Z,18.50
2018-05-25T02:05:05.878Z,18.40
2018-05-25T02:07:33.399Z,18.40
2018-05-25T02:10:01.815Z,18.30
2018-05-25T02:12:29.345Z,18.30
2018-05-25T02:14:57.644Z,18.20
2018-05-25T02:17:25.206Z,18.20
2018-05-25T02:19:52.870Z,18.30
2018-05-25T02:22:20.406Z,18.20
2018-05-25T02:24:48.810Z,18.00
2018-05-25T02:27:16.335Z,18.00
2018-05-25T02:29:44.626Z,18.10
2018-05-25T02:32:12.240Z,18.00
2018-05-25T02:34:39.865Z,18.00
2018-05-25T02:37:07.400Z,18.10
2018-05-25T02:39:34.939Z,18.00
2018-05-25T02:42:02.460Z,17.90
2018-05-25T02:44:29.997Z,17.80
2018-05-25T02:46:57.542Z,17.80
2018-05-25T02:49:25.062Z,17.70
2018-05-25T02:51:52.622Z,17.70
2018-05-25T02:54:20.901Z,17.70
2018-05-25T02:56:48.417Z,17.70
2018-05-25T02:59:15.961Z,17.70
2018-05-25T03:01:43.483Z,17.60
2018-05-25T03:04:11.250Z,17.60
2018-05-25T03:06:39.675Z,17.50
2018-05-25T03:09:07.224Z,17.50
2018-05-25T03:11:34.882Z,17.50
2018-05-25T03:14:02.454Z,17.50
2018-05-25T03:16:29.970Z,17.40
2018-05-25T03:18:58.386Z,17.40
2018-05-25T03:21:25.920Z,17.40
2018-05-25T03:23:53.444Z,17.40
2018-05-25T03:26:20.970Z,17.30
2018-05-25T03:28:48.590Z,17.30
2018-05-25T03:31:16.129Z,17.40
2018-05-25T03:33:43.640Z,17.30
2018-05-25T03:36:11.186Z,17.20
2018-05-25T03:38:38.732Z,17.20
2018-05-25T03:41:06.294Z,17.20
2018-05-25T03:43:33.803Z,17.30
2018-05-25T03:46:01.342Z,17.20
2018-05-25T03:48:28.888Z,17.20
2018-05-25T03:50:56.446Z,17.20
2018-05-25T03:53:23.984Z,17.20
2018-05-25T03:55:51.504Z,17.10
2018-05-25T03:58:19.032Z,17.10
2018-05-25T04:00:58.441Z,17.10
2018-05-25T04:03:25.955Z,17.10
2018-05-25T04:05:53.497Z,17.10
2018-05-25T04:08:21.052Z,17.00
2018-05-25T04:10:48.576Z,17.10
2018-05-25T04:13:16.102Z,17.10
2018-05-25T04:15:43.706Z,17.10
2018-05-25T04:18:11.248Z,17.10
2018-05-25T04:20:39.545Z,17.10
2018-05-25T04:23:07.095Z,17.10
2018-05-25T04:25:34.658Z,17.10
2018-05-25T04:28:02.313Z,17.10
2018-05-25T04:30:29.831Z,17.20
2018-05-25T04:32:57.403Z,17.10
2018-05-25T04:35:25.686Z,17.20
2018-05-25T04:37:53.995Z,17.20
2018-05-25T04:40:21.525Z,17.20
2018-05-25T04:42:49.210Z,17.20
2018-05-25T04:45:16.712Z,17.20
2018-05-25T04:47:45.031Z,17.20
2018-05-25T04:50:13.321Z,17.20
2018-05-25T04:52:40.846Z,17.20
2018-05-25T04:55:08.377Z,17.20
2018-05-25T04:57:35.899Z,17.20
2018-05-25T05:00:03.535Z,17.20
2018-05-25T05:02:31.834Z,17.30
2018-05-25T05:04:59.406Z,17.30
2018-05-25T05:07:26.904Z,17.30
2018-05-25T05:09:54.418Z,17.40
2018-05-25T05:12:21.955Z,17.40
2018-05-25T05:14:49.589Z,17.40
2018-05-25T05:17:17.057Z,17.50
2018-05-25T05:19:44.584Z,17.50
2018-05-25T05:22:12.113Z,17.50
2018-05-25T05:24:39.641Z,17.50
2018-05-25T05:27:07.185Z,17.60
2018-05-25T05:29:34.721Z,17.60
2018-05-25T05:32:02.279Z,17.60
2018-05-25T05:34:29.829Z,17.60
2018-05-25T05:36:57.368Z,17.70
2018-05-25T05:39:24.883Z,17.80
2018-05-25T05:41:53.201Z,17.80
2018-05-25T05:44:20.738Z,17.80
2018-05-25T05:46:48.283Z,17.90
2018-05-25T05:49:16.570Z,17.80
2018-05-25T05:51:44.849Z,17.90
2018-05-25T05:54:12.403Z,17.90
2018-05-25T05:56:39.921Z,18.00
2018-05-25T05:59:07.519Z,18.00
2018-05-25T06:01:35.050Z,18.10
2018-05-25T06:04:02.577Z,18.10
2018-05-25T06:06:30.203Z,18.10
2018-05-25T06:08:57.779Z,18.20
2018-05-25T06:11:25.306Z,18.20
2018-05-25T06:13:52.857Z,18.20
2018-05-25T06:16:20.425Z,18.30
2018-05-25T06:18:48.739Z,18.30
2018-05-25T06:21:16.284Z,18.30
2018-05-25T06:23:43.944Z,18.40
2018-05-25T06:26:11.487Z,18.50
2018-05-25T06:28:39.003Z,18.60
2018-05-25T06:31:06.703Z,18.60
2018-05-25T06:33:35.008Z,18.70
2018-05-25T06:36:02.663Z,18.70
2018-05-25T06:38:30.200Z,18.70
2018-05-25T06:40:58.592Z,18.80
2018-05-25T06:43:26.189Z,18.80
2018-05-25T06:45:53.723Z,18.90
2018-05-25T06:48:21.368Z,18.90
2018-05-25T06:50:48.909Z,19.00
2018-05-25T06:53:17.222Z,19.20
2018-05-25T06:55:44.742Z,19.20
2018-05-25T06:58:12.271Z,19.20
2018-05-25T07:00:39.780Z,19.30
2018-05-25T07:03:07.417Z,19.40
2018-05-25T07:05:35.718Z,19.50
2018-05-25T07:08:03.354Z,19.50
2018-05-25T07:10:31.657Z,19.60
2018-05-25T07:12:59.201Z,19.60
2018-05-25T07:15:26.837Z,19.70
2018-05-25T07:17:54.398Z,19.80
2018-05-25T07:20:21.933Z,19.80
2018-05-25T07:22:49.526Z,19.90
2018-05-25T07:25:17.852Z,20.10
2018-05-25T07:27:45.365Z,20.10
2018-05-25T07:30:12.897Z,20.20
2018-05-25T07:32:40.475Z,20.40
2018-05-25T07:35:08.003Z,20.50
2018-05-25T07:37:35.841Z,20.50
2018-05-25T07:40:03.379Z,20.60
2018-05-25T07:42:30.931Z,20.80
2018-05-25T07:44:58.461Z,20.90
2018-05-25T07:47:26.061Z,21.00
2018-05-25T07:49:53.633Z,21.10
2018-05-25T07:52:21.195Z,21.10
2018-05-25T07:54:48.739Z,21.20
2018-05-25T07:57:16.355Z,21.30
2018-05-25T07:59:43.895Z,21.40
2018-05-25T08:02:11.409Z,21.50
2018-05-25T08:04:38.925Z,21.60
2018-05-25T08:07:06.450Z,21.60
2018-05-25T08:09:33.986Z,21.70
2018-05-25T08:12:01.555Z,21.80
2018-05-25T08:14:29.106Z,21.80
2018-05-25T08:16:56.638Z,21.90
2018-05-25T08:19:24.915Z,22.00
2018-05-25T08:21:53.252Z,22.10
2018-05-25T08:24:20.840Z,22.10
2018-05-25T08:26:48.365Z,22.10
2018-05-25T08:29:15.898Z,22.20
2018-05-25T08:31:43.440Z,22.30
2018-05-25T08:34:11.746Z,22.30
2018-05-25T08:36:39.294Z,22.30
2018-05-25T08:39:06.837Z,22.50
2018-05-25T08:41:35.125Z,22.60
2018-05-25T08:44:02.689Z,22.50
2018-05-25T08:46:30.218Z,22.60
2018-05-25T08:48:58.618Z,22.70
2018-05-25T08:51:26.302Z,22.70
2018-05-25T08:53:53.822Z,22.80
2018-05-25T08:56:22.144Z,22.90
2018-05-25T08:58:49.664Z,22.90
2018-05-25T09:01:17.225Z,23.00
2018-05-25T09:03:45.532Z,23.10
2018-05-25T09:06:13.186Z,23.10
2018-05-25T09:08:40.806Z,23.20
2018-05-25T09:11:08.412Z,23.20
2018-05-25T09:13:35.940Z,23.30
2018-05-25T09:16:03.474Z,23.40
2018-05-25T09:18:32.516Z,23.50
2018-05-25T09:21:00.050Z,23.50
2018-05-25T09:23:27.568Z,23.60
2018-05-25T09:25:55.092Z,23.60
2018-05-25T09:28:22.634Z,23.60
2018-05-25T09:30:50.176Z,23.70
2018-05-25T09:33:18.481Z,23.80
2018-05-25T09:35:46.010Z,23.80
2018-05-25T09:38:13.534Z,23.90
2018-05-25T09:40:41.069Z,24.00
2018-05-25T09:43:08.592Z,23.90
2018-05-25T09:45:36.114Z,24.00
2018-05-25T09:48:03.651Z,24.00
2018-05-25T09:50:31.247Z,24.10
2018-05-25T09:52:58.861Z,24.10
2018-05-25T09:55:26.386Z,24.10
2018-05-25T09:57:57.584Z,24.10
2018-05-25T10:00:26.065Z,24.00
2018-05-25T10:02:53.592Z,24.10
2018-05-25T10:05:21.136Z,24.30
2018-05-25T10:07:48.657Z,24.50
2018-05-25T10:10:16.981Z,24.60
2018-05-25T10:12:44.520Z,24.60
2018-05-25T10:15:12.826Z,24.80
2018-05-25T10:17:40.335Z,24.80
2018-05-25T10:20:07.854Z,24.80
2018-05-25T10:22:35.401Z,24.90
2018-05-25T10:25:02.918Z,24.90
2018-05-25T10:27:30.455Z,25.00
2018-05-25T10:29:57.964Z,25.10
2018-05-25T10:32:25.501Z,25.20
2018-05-25T10:34:53.046Z,25.30
2018-05-25T10:37:20.593Z,25.30
2018-05-25T10:39:48.107Z,25.40
2018-05-25T10:42:15.770Z,25.50
2018-05-25T10:44:43.290Z,25.60
2018-05-25T10:47:11.593Z,25.80
2018-05-25T10:49:39.095Z,25.80
2018-05-25T10:52:06.618Z,25.90
2018-05-25T10:54:34.328Z,25.90
2018-05-25T10:57:02.621Z,25.90
2018-05-25T10:59:31.047Z,25.80
2018-05-25T11:01:58.607Z,25.80
2018-05-25T11:04:26.157Z,25.90
2018-05-25T11:06:53.694Z,26.00
2018-05-25T11:09:22.013Z,26.20
2018-05-25T11:11:49.546Z,26.20
2018-05-25T11:14:17.075Z,26.30
2018-05-25T11:16:45.352Z,26.50
2018-05-25T11:19:12.882Z,26.40
2018-05-25T11:21:40.424Z,26.40
2018-05-25T11:24:07.965Z,26.50
2018-05-25T11:26:35.508Z,26.60
2018-05-25T11:29:03.056Z,26.60
2018-05-25T11:31:30.586Z,26.70
2018-05-25T11:33:58.120Z,26.70
2018-05-25T11:36:25.850Z,26.90
2018-05-25T11:38:53.376Z,27.00
2018-05-25T11:41:21.806Z,27.20
2018-05-25T11:43:49.336Z,27.20
2018-05-25T11:46:17.631Z,27.30
2018-05-25T11:48:45.149Z,27.30
2018-05-25T11:51:12.679Z,27.30
2018-05-25T11:53:40.258Z,27.40
2018-05-25T11:56:07.958Z,27.40
2018-05-25T11:58:35.493Z,27.50
2018-05-25T12:01:03.816Z,27.30
2018-05-25T12:03:32.264Z,27.30
2018-05-25T12:05:59.808Z,27.40
2018-05-25T12:08:27.360Z,27.60
2018-05-25T12:10:54.890Z,27.70
2018-05-25T12:13:22.416Z,27.90
2018-05-25T12:15:49.963Z,28.30
2018-05-25T12:18:17.506Z,28.30
2018-05-25T12:20:45.026Z,28.40
2018-05-25T12:23:12.624Z,28.50
2018-05-25T12:25:40.202Z,28.50
2018-05-25T12:28:07.789Z,28.80
2018-05-25T12:30:35.310Z,29.20
2018-05-25T12:33:02.848Z,29.10
2018-05-25T12:35:30.426Z,29.00
2018-05-25T12:37:58.831Z,29.50
2018-05-25T12:40:26.555Z,29.50
2018-05-25T12:42:54.152Z,29.30
2018-05-25T12:45:21.666Z,29.20
2018-05-25T12:47:50.000Z,29.40
2018-05-25T12:50:17.520Z,29.30
2018-05-25T12:52:45.072Z,29.50
2018-05-25T12:55:13.398Z,30.00
2018-05-25T12:57:40.914Z,30.00
2018-05-25T13:00:08.672Z,30.50
2018-05-25T13:02:36.958Z,30.30
2018-05-25T13:05:05.292Z,30.50
2018-05-25T13:07:32.882Z,30.50
2018-05-25T13:10:01.313Z,31.00
2018-05-25T13:12:28.862Z,31.00
2018-05-25T13:14:56.398Z,30.90
2018-05-25T13:17:23.921Z,30.70
2018-05-25T13:19:51.443Z,30.40
2018-05-25T13:22:18.968Z,30.60
2018-05-25T13:24:46.501Z,30.90
2018-05-25T13:27:14.809Z,31.30
2018-05-25T13:29:42.342Z,31.30
2018-05-25T13:32:09.884Z,31.30
2018-05-25T13:34:37.469Z,31.40
2018-05-25T13:37:05.018Z,31.30
2018-05-25T13:39:33.443Z,31.80
2018-05-25T13:42:00.976Z,31.70
2018-05-25T13:44:28.547Z,32.20
2018-05-25T13:46:56.084Z,32.30
2018-05-25T13:49:24.499Z,32.80
2018-05-25T13:51:52.142Z,32.70
2018-05-25T13:54:19.889Z,33.20
2018-05-25T13:56:48.186Z,32.70
2018-05-25T13:59:15.815Z,32.70
2018-05-25T14:01:43.412Z,32.10
2018-05-25T14:04:10.946Z,32.20
2018-05-25T14:06:39.245Z,32.50
2018-05-25T14:09:06.774Z,32.50
2018-05-25T14:11:34.470Z,32.20
2018-05-25T14:14:02.006Z,32.50
2018-05-25T14:16:30.407Z,32.60
2018-05-25T14:18:57.937Z,32.70
2018-05-25T14:21:26.220Z,32.10
2018-05-25T14:23:54.180Z,32.10
2018-05-25T14:26:21.778Z,31.80
2018-05-25T14:28:49.400Z,31.60
2018-05-25T14:31:17.686Z,31.00
2018-05-25T14:33:45.216Z,30.90
2018-05-25T14:36:13.490Z,30.40
2018-05-25T14:38:41.004Z,30.40
2018-05-25T14:41:08.522Z,30.30
2018-05-25T14:43:36.816Z,31.40
2018-05-25T14:46:04.398Z,31.30
2018-05-25T14:48:32.042Z,31.80
2018-05-25T14:50:59.582Z,31.50
2018-05-25T14:53:27.906Z,31.90
2018-05-25T14:55:55.414Z,31.90
2018-05-25T14:58:22.966Z,32.60
2018-05-25T15:00:51.258Z,32.80
2018-05-25T15:03:19.576Z,33.00
2018-05-25T15:05:47.132Z,33.00
2018-05-25T15:08:14.667Z,33.30
2018-05-25T15:10:42.183Z,33.30
2018-05-25T15:13:11.208Z,33.20
2018-05-25T15:15:38.780Z,33.20
2018-05-25T15:18:06.448Z,33.00
2018-05-25T15:20:33.990Z,32.20
2018-05-25T15:23:01.551Z,31.70
2018-05-25T15:25:29.082Z,31.10
2018-05-25T15:27:56.672Z,31.50
2018-05-25T15:30:24.206Z,32.00
2018-05-25T15:32:52.496Z,32.00
2018-05-25T15:35:20.786Z,31.40
2018-05-25T15:37:48.320Z,31.40
2018-05-25T15:40:15.908Z,31.20
2018-05-25T15:42:43.450Z,30.90
2018-05-25T15:45:11.002Z,30.70
2018-05-25T15:47:38.550Z,30.90
2018-05-25T15:50:06.238Z,31.10
2018-05-25T15:52:33.959Z,30.70
2018-05-25T15:55:01.520Z,30.60
2018-05-25T15:57:29.072Z,30.60
2018-05-25T15:59:56.605Z,30.90
2018-05-25T16:02:24.262Z,31.00
2018-05-25T16:04:51.786Z,31.50
2018-05-25T16:07:19.305Z,31.40
2018-05-25T16:09:46.862Z,31.70
2018-05-25T16:12:14.403Z,31.80
2018-05-25T16:14:41.942Z,31.90
2018-05-25T16:17:09.466Z,31.80
2018-05-25T16:19:37.016Z,31.80
2018-05-25T16:22:04.580Z,31.50
2018-05-25T16:24:32.420Z,31.10
2018-05-25T16:26:59.976Z,30.80
2018-05-25T16:29:27.518Z,30.80
2018-05-25T16:31:55.064Z,30.70
2018-05-25T16:34:22.580Z,30.40
2018-05-25T16:36:50.870Z,30.30
2018-05-25T16:39:18.396Z,30.20
2018-05-25T16:41:47.369Z,30.60
2018-05-25T16:44:17.682Z,30.80
2018-05-25T16:46:45.199Z,30.90
2018-05-25T16:49:13.485Z,31.00
2018-05-25T16:51:41.040Z,31.00
2018-05-25T16:54:08.591Z,30.90
2018-05-25T16:56:36.881Z,31.00
2018-05-25T16:59:04.482Z,30.90
2018-05-25T17:01:32.024Z,30.90
2018-05-25T17:03:59.546Z,31.10
2018-05-25T17:06:27.096Z,31.10
2018-05-25T17:08:55.397Z,30.90
2018-05-25T17:11:22.923Z,30.90
2018-05-25T17:13:50.475Z,31.00
2018-05-25T17:16:18.002Z,30.90
2018-05-25T17:18:45.536Z,30.80
2018-05-25T17:21:13.067Z,30.60
2018-05-25T17:23:40.695Z,30.30
2018-05-25T17:26:08.490Z,30.20
2018-05-25T17:28:36.066Z,30.10
2018-05-25T17:31:04.380Z,29.70
2018-05-25T17:33:31.929Z,29.60
2018-05-25T17:35:59.501Z,29.40
2018-05-25T17:38:27.005Z,29.20
2018-05-25T17:40:54.601Z,29.20
2018-05-25T17:43:22.363Z,29.10
2018-05-25T17:45:49.891Z,28.90
2018-05-25T17:48:18.295Z,28.90
2018-05-25T17:50:45.837Z,28.90
2018-05-25T17:53:14.135Z,28.60
2018-05-25T17:55:41.665Z,28.60
2018-05-25T17:58:09.197Z,28.40
2018-05-25T18:00:36.721Z,28.20
2018-05-25T18:03:04.291Z,28.10
2018-05-25T18:05:31.804Z,28.10
2018-05-25T18:08:00.106Z,28.00
2018-05-25T18:10:27.651Z,28.00
2018-05-25T18:12:55.164Z,27.90
2018-05-25T18:15:22.762Z,27.90
2018-05-25T18:17:50.291Z,27.90
2018-05-25T18:20:18.597Z,27.70
2018-05-25T18:22:46.151Z,27.60
2018-05-25T18:25:13.670Z,27.50
2018-05-25T18:27:41.200Z,27.50
2018-05-25T18:30:08.748Z,27.40
2018-05-25T18:32:36.360Z,27.30
2018-05-25T18:35:03.868Z,27.10
2018-05-25T18:37:31.408Z,26.80
2018-05-25T18:39:58.961Z,26.60
2018-05-25T18:42:26.503Z,26.40
2018-05-25T18:44:55.051Z,26.20
2018-05-25T18:47:22.562Z,26.20
2018-05-25T18:49:50.086Z,26.10
2018-05-25T18:52:17.621Z,26.00
2018-05-25T18:54:45.165Z,26.00
2018-05-25T18:57:12.710Z,25.90
2018-05-25T18:59:40.269Z,25.80
2018-05-25T19:02:08.586Z,25.60
2018-05-25T19:04:36.124Z,25.50
2018-05-25T19:07:03.666Z,25.40
2018-05-25T19:09:31.202Z,25.30
2018-05-25T19:11:59.499Z,25.10
2018-05-25T19:14:27.040Z,25.10
2018-05-25T19:16:54.575Z,24.90
2018-05-25T19:19:22.873Z,24.50
2018-05-25T19:21:51.156Z,24.50
2018-05-25T19:24:19.464Z,24.40
2018-05-25T19:26:47.034Z,24.40
2018-05-25T19:29:14.534Z,24.30
2018-05-25T19:31:42.861Z,24.00
2018-05-25T19:34:10.388Z,24.00
2018-05-25T19:36:37.941Z,24.00
2018-05-25T19:39:06.261Z,23.80
2018-05-25T19:41:35.437Z,23.50
2018-05-25T19:44:02.990Z,23.50
2018-05-25T19:46:30.549Z,23.40
2018-05-25T19:48:58.086Z,23.30
2018-05-25T19:51:26.400Z,23.20
2018-05-25T19:53:53.992Z,23.10
2018-05-25T19:56:21.527Z,23.10
2018-05-25T19:58:49.045Z,23.00
2018-05-25T20:01:16.574Z,23.00
2018-05-25T20:03:44.865Z,22.90
2018-05-25T20:06:13.182Z,22.80
2018-05-25T20:08:41.499Z,22.70
2018-05-25T20:11:09.052Z,22.70
2018-05-25T20:13:37.436Z,22.70
2018-05-25T20:16:04.982Z,22.60
2018-05-25T20:18:32.577Z,22.60
2018-05-25T20:21:00.278Z,22.50
2018-05-25T20:23:27.830Z,22.30
2018-05-25T20:25:55.448Z,22.20
2018-05-25T20:28:23.743Z,22.00
2018-05-25T20:30:52.052Z,22.00
2018-05-25T20:33:19.605Z,22.00
2018-05-25T20:35:47.154Z,22.00
2018-05-25T20:38:14.692Z,22.00
2018-05-25T20:40:42.274Z,21.90
2018-05-25T20:43:09.914Z,21.80
2018-05-25T20:45:38.218Z,21.80
2018-05-25T20:48:05.774Z,21.70
2018-05-25T20:50:33.300Z,21.60
2018-05-25T20:53:01.591Z,21.60
2018-05-25T20:55:29.130Z,21.60
2018-05-25T20:57:56.756Z,21.40
2018-05-25T21:00:24.294Z,21.30
2018-05-25T21:02:51.857Z,21.30
2018-05-25T21:05:19.394Z,21.20
2018-05-25T21:07:46.914Z,21.10
2018-05-25T21:10:15.352Z,21.00
2018-05-25T21:12:42.865Z,20.90
2018-05-25T21:15:11.168Z,20.90
2018-05-25T21:17:38.701Z,20.90
2018-05-25T21:20:06.245Z,20.80
2018-05-25T21:22:34.548Z,20.70
2018-05-25T21:25:02.840Z,20.60
2018-05-25T21:27:30.432Z,20.60
2018-05-25T21:29:57.958Z,20.60
2018-05-25T21:32:25.558Z,20.50
2018-05-25T21:34:53.175Z,20.40
2018-05-25T21:37:20.771Z,20.30
2018-05-25T21:39:48.276Z,20.30
2018-05-25T21:42:15.826Z,20.30
2018-05-25T21:44:44.247Z,20.20
2018-05-25T21:47:11.987Z,20.20
2018-05-25T21:49:40.283Z,20.10
2018-05-25T21:52:07.815Z,20.00
2018-05-25T21:54:35.504Z,20.00
2018-05-25T21:57:03.052Z,20.00
2018-05-25T21:59:30.590Z,20.00
2018-05-25T22:01:58.142Z,19.90
2018-05-25T22:04:26.466Z,19.90
2018-05-25T22:06:54.018Z,19.90
2018-05-25T22:09:21.538Z,19.70
2018-05-25T22:11:49.850Z,19.60
2018-05-25T22:14:17.387Z,19.50
2018-05-25T22:16:45.056Z,19.50
2018-05-25T22:19:13.246Z,19.50
2018-05-25T22:21:40.880Z,19.40
2018-05-25T22:24:09.281Z,19.30
2018-05-25T22:26:36.863Z,19.30
2018-05-25T22:29:04.388Z,19.30
2018-05-25T22:31:31.914Z,19.40
2018-05-25T22:33:59.456Z,19.20
2018-05-25T22:36:27.585Z,19.20
2018-05-25T22:38:55.250Z,19.20
2018-05-25T22:41:22.912Z,19.00
2018-05-25T22:44:02.472Z,19.00
2018-05-25T22:46:41.765Z,19.00
2018-05-25T22:49:21.021Z,18.90
2018-05-25T22:52:00.392Z,18.90
2018-05-25T22:54:34.593Z,18.80
2018-05-25T22:57:02.178Z,18.80
2018-05-25T22:59:29.814Z,18.70
2018-05-25T23:01:57.454Z,18.60
2018-05-25T23:04:24.995Z,18.70
2018-05-25T23:06:52.616Z,18.70
2018-05-25T23:09:20.183Z,18.70
2018-05-25T23:11:47.726Z,18.60
2018-05-25T23:14:15.262Z,18.60
2018-05-25T23:16:42.881Z,18.50
2018-05-25T23:19:11.489Z,18.50
2018-05-25T23:21:39.149Z,18.50
2018-05-25T23:24:06.674Z,18.40
2018-05-25T23:26:34.958Z,18.20
2018-05-25T23:29:03.260Z,18.30
2018-05-25T23:31:30.877Z,18.30
2018-05-25T23:33:58.436Z,18.30
2018-05-25T23:36:25.976Z,18.20
2018-05-25T23:38:53.499Z,18.20
2018-05-25T23:41:21.043Z,18.20
2018-05-25T23:43:48.606Z,18.30
2018-05-25T23:46:16.124Z,18.30
2018-05-25T23:48:43.666Z,18.10
2018-05-25T23:51:11.190Z,18.00
2018-05-25T23:53:38.763Z,18.00
2018-05-25T23:56:06.288Z,18.10
2018-05-25T23:58:33.853Z,18.10
